Time;durP1;ratioP1;P1;durP2;ratioP2;P2;SDS_P1;SDS_P2;PMS_P1;PMS_P2;Temp;Humidity;BMP_temperature;BMP_pressure;BME280_temperature;BME280_humidity;BME280_pressure;Samples;Min_cycle;Max_cycle;Signal;HPM_P1;HPM_P2
2022/05/31 00:01:19;;;;;;;6.57;2.90;;;;;;;19.93;59.54;99777.59;5076229;28;20444;-71
2022/05/31 00:03:46;;;;;;;9.60;3.08;;;;;;;20.05;59.55;99792.53;5074953;28;20056;-71
2022/05/31 00:06:14;;;;;;;7.55;3.67;;;;;;;20.16;59.82;99803.34;5080511;28;20131;-71
2022/05/31 00:08:44;;;;;;;10.95;3.25;;;;;;;20.11;59.78;99807.28;5091492;28;20387;-73
2022/05/31 00:11:11;;;;;;;9.68;3.58;;;;;;;20.08;59.77;99788.16;5086998;28;20052;-71
2022/05/31 00:13:38;;;;;;;7.72;3.35;;;;;;;19.89;59.35;99772.66;5091697;28;20135;-72
2022/05/31 00:16:05;;;;;;;8.27;3.08;;;;;;;20.26;59.17;99808.47;5087619;28;20075;-72
2022/05/31 00:18:32;;;;;;;5.82;3.53;;;;;;;20.30;59.51;99809.38;5090075;28;20048;-72
2022/05/31 00:20:59;;;;;;;4.85;3.20;;;;;;;20.44;59.00;99812.59;5082355;28;20135;-71
2022/05/31 00:23:26;;;;;;;5.03;3.15;;;;;;;20.40;58.90;99794.66;5083094;28;20135;-71
2022/05/31 00:25:53;;;;;;;5.95;3.63;;;;;;;20.37;58.77;99792.56;5090716;28;20123;-71
2022/05/31 00:28:20;;;;;;;6.47;3.03;;;;;;;20.47;58.67;99799.72;5084127;28;20084;-71
2022/05/31 00:30:47;;;;;;;9.80;3.65;;;;;;;20.50;58.66;99814.00;5085022;28;20117;-70
2022/05/31 00:33:14;;;;;;;7.97;3.03;;;;;;;20.26;58.76;99775.28;5092212;28;20083;-70
2022/05/31 00:35:45;;;;;;;9.95;3.08;;;;;;;20.26;58.67;99757.44;5093296;28;20135;-71
2022/05/31 00:38:13;;;;;;;7.20;2.90;;;;;;;20.49;58.24;99795.31;5080172;28;20132;-71
2022/05/31 00:40:40;;;;;;;8.05;2.85;;;;;;;20.58;58.25;99812.16;5077591;28;20083;-70
2022/05/31 00:43:14;;;;;;;5.93;3.30;;;;;;;20.50;58.46;99784.78;5092636;28;20087;-72
2022/05/31 00:45:48;;;;;;;8.35;3.30;;;;;;;20.62;58.42;99803.78;5082991;28;20044;-71
2022/05/31 00:48:27;;;;;;;5.97;2.90;;;;;;;20.58;58.18;99804.50;5088441;28;20044;-72
2022/05/31 00:51:03;;;;;;;6.53;3.13;;;;;;;20.31;58.29;99760.84;5092991;28;20202;-73
2022/05/31 00:53:37;;;;;;;6.78;3.75;;;;;;;20.66;58.30;99816.03;5080670;28;20131;-72
2022/05/31 00:56:12;;;;;;;5.30;3.63;;;;;;;20.56;58.34;99797.56;5087163;28;20134;-71
2022/05/31 00:58:47;;;;;;;5.75;3.88;;;;;;;20.54;58.60;99806.41;5087283;28;20561;-71
2022/05/31 01:01:17;;;;;;;6.00;3.35;;;;;;;20.67;58.27;99820.50;5087932;28;20511;-70
2022/05/31 01:03:45;;;;;;;8.02;3.75;;;;;;;20.64;58.12;99813.56;5088325;28;20083;-70
2022/05/31 01:06:12;;;;;;;10.07;3.75;;;;;;;20.60;58.25;99801.28;5086146;28;20135;-71
2022/05/31 01:08:45;;;;;;;6.75;2.90;;;;;;;20.73;58.35;99805.69;5088662;28;20072;-71
2022/05/31 01:11:22;;;;;;;9.15;3.97;;;;;;;20.73;58.58;99802.03;5090531;28;20048;-71
2022/05/31 01:13:49;;;;;;;7.55;3.17;;;;;;;20.66;58.56;99794.16;5081089;28;20139;-71
2022/05/31 01:16:16;;;;;;;6.95;3.60;;;;;;;20.73;58.68;99807.69;5083484;28;20092;-71
2022/05/31 01:18:43;;;;;;;10.23;3.65;;;;;;;20.71;58.70;99802.38;5090482;28;20105;-71
2022/05/31 01:21:10;;;;;;;7.45;4.20;;;;;;;20.78;58.64;99808.22;5092329;28;20123;-72
2022/05/31 01:23:45;;;;;;;7.28;3.67;;;;;;;20.77;58.50;99800.91;5081936;28;20113;-72
2022/05/31 01:26:28;;;;;;;7.75;3.15;;;;;;;20.77;58.47;99802.94;5079151;28;20566;-72
2022/05/31 01:29:07;;;;;;;8.23;3.67;;;;;;;20.80;58.29;99805.03;5086988;28;20048;-72
2022/05/31 01:31:42;;;;;;;8.75;4.10;;;;;;;20.82;58.13;99797.00;5083350;28;20123;-71
2022/05/31 01:34:23;;;;;;;8.00;3.80;;;;;;;20.56;57.99;99752.97;5093236;28;20097;-71
2022/05/31 01:36:53;;;;;;;6.70;4.00;;;;;;;20.87;58.07;99799.53;5088394;28;20126;-71
2022/05/31 01:39:22;;;;;;;8.02;3.63;;;;;;;20.87;58.00;99796.69;5084597;28;20138;-72
2022/05/31 01:41:55;;;;;;;5.97;3.38;;;;;;;20.80;57.92;99788.00;5090480;28;20180;-72
2022/05/31 01:44:25;;;;;;;8.23;3.53;;;;;;;20.92;58.09;99813.47;5077415;28;20087;-71
2022/05/31 01:46:56;;;;;;;10.93;3.20;;;;;;;20.87;57.81;99793.03;5089080;28;20131;-72
2022/05/31 01:49:26;;;;;;;9.68;3.85;;;;;;;20.90;57.80;99787.44;5091020;28;20130;-72
2022/05/31 01:51:53;;;;;;;7.47;3.50;;;;;;;20.93;57.71;99789.56;5077677;28;20134;-72
2022/05/31 01:54:20;;;;;;;7.15;2.80;;;;;;;20.94;57.29;99799.69;5083101;28;20144;-72
2022/05/31 01:56:50;;;;;;;6.95;3.50;;;;;;;20.85;57.52;99779.19;5076571;28;20056;-71
2022/05/31 01:59:18;;;;;;;12.38;3.28;;;;;;;20.87;57.57;99793.03;5087444;28;20135;-71
2022/05/31 02:01:45;;;;;;;5.72;2.90;;;;;;;20.71;57.56;99770.34;5077106;28;20135;-72
2022/05/31 02:04:16;;;;;;;6.32;3.15;;;;;;;20.89;57.45;99793.47;5087403;28;20553;-72
2022/05/31 02:06:43;;;;;;;5.60;3.08;;;;;;;20.98;57.65;99817.63;5088026;28;20168;-71
2022/05/31 02:09:13;;;;;;;8.88;3.13;;;;;;;21.02;57.48;99810.03;5084223;28;20131;-71
2022/05/31 02:11:40;;;;;;;5.97;2.50;;;;;;;21.01;57.86;99811.22;5088473;28;20127;-70
2022/05/31 02:14:08;;;;;;;6.68;2.65;;;;;;;20.91;57.83;99806.13;5084139;28;20230;-70
2022/05/31 02:16:35;;;;;;;10.50;3.50;;;;;;;20.94;57.72;99808.22;5087966;28;20075;-70
2022/05/31 02:21:48;;;;;;;8.25;3.13;;;;;;;20.95;57.54;99814.72;5101935;28;20048;-69
2022/05/31 02:24:15;;;;;;;6.00;2.92;;;;;;;20.96;57.78;99814.38;5099949;28;20076;-70
2022/05/31 02:26:43;;;;;;;5.43;2.85;;;;;;;21.02;57.61;99809.22;5092669;28;20079;-69
2022/05/31 02:29:12;;;;;;;8.73;2.63;;;;;;;20.81;57.73;99772.63;5088455;28;21598;-68
2022/05/31 02:31:40;;;;;;;7.47;2.40;;;;;;;20.90;57.70;99795.97;5086310;28;20538;-69
2022/05/31 02:34:08;;;;;;;5.97;2.60;;;;;;;21.08;57.55;99821.09;5088375;28;20085;-70
2022/05/31 02:36:35;;;;;;;6.13;2.58;;;;;;;21.04;57.53;99813.31;5082930;28;20118;-70
2022/05/31 02:39:03;;;;;;;5.00;2.63;;;;;;;21.11;58.01;99814.69;5091274;28;20075;-70
2022/05/31 02:41:31;;;;;;;3.95;2.50;;;;;;;20.95;58.30;99795.66;5074737;28;20044;-72
2022/05/31 02:43:58;;;;;;;8.23;3.13;;;;;;;21.04;58.34;99807.66;5081248;28;20094;-73
2022/05/31 02:46:26;;;;;;;6.00;2.42;;;;;;;21.11;58.13;99815.50;5081875;28;20131;-73
2022/05/31 02:48:54;;;;;;;7.55;2.80;;;;;;;20.92;58.23;99789.91;5082768;28;20070;-71
2022/05/31 02:51:20;;;;;;;6.32;2.85;;;;;;;21.00;58.43;99808.78;5087885;28;20135;-70
2022/05/31 02:53:47;;;;;;;12.90;2.83;;;;;;;20.75;58.76;99779.78;5091741;28;20091;-70
2022/05/31 02:56:14;;;;;;;5.63;2.70;;;;;;;20.98;58.61;99819.66;5083169;28;20117;-71
2022/05/31 02:58:41;;;;;;;4.43;2.33;;;;;;;20.97;58.73;99818.84;5088712;28;20084;-71
2022/05/31 03:01:23;;;;;;;9.68;2.80;;;;;;;20.97;58.88;99818.03;5081469;28;20062;-71
2022/05/31 03:03:51;;;;;;;4.57;2.55;;;;;;;20.99;59.01;99824.97;5088072;28;20048;-71
2022/05/31 03:06:19;;;;;;;8.45;2.88;;;;;;;20.96;58.96;99819.22;5083661;28;20503;-71
2022/05/31 03:08:47;;;;;;;5.20;2.83;;;;;;;20.90;58.89;99815.00;5073980;28;20048;-71
2022/05/31 03:11:27;;;;;;;5.90;2.80;;;;;;;20.93;59.38;99819.94;5075442;28;20063;-71
2022/05/31 03:14:02;;;;;;;6.43;2.28;;;;;;;20.93;59.19;99817.13;5085778;28;20076;-72
2022/05/31 03:16:29;;;;;;;7.93;2.85;;;;;;;20.73;59.17;99787.84;5089181;28;20109;-72
2022/05/31 03:19:02;;;;;;;4.60;2.65;;;;;;;20.91;59.10;99817.47;5085642;28;20499;-72
2022/05/31 03:21:38;;;;;;;10.05;3.33;;;;;;;20.93;59.39;99822.78;5085510;28;20490;-72
2022/05/31 03:24:13;;;;;;;7.13;3.15;;;;;;;20.82;59.62;99799.84;5085397;28;20128;-72
2022/05/31 03:26:41;;;;;;;7.35;2.83;;;;;;;20.93;59.40;99814.28;5084459;28;20086;-72
2022/05/31 03:29:09;;;;;;;6.45;3.05;;;;;;;20.70;59.74;99772.38;5081391;28;20117;-73
2022/05/31 03:31:37;;;;;;;11.90;3.17;;;;;;;20.94;59.75;99810.25;5087257;28;20131;-72
2022/05/31 03:34:04;;;;;;;7.57;3.20;;;;;;;20.83;59.69;99792.94;5087044;28;20465;-72
2022/05/31 03:36:31;;;;;;;7.65;3.08;;;;;;;20.83;59.67;99784.44;5082456;28;20051;-72
2022/05/31 03:38:58;;;;;;;6.22;3.28;;;;;;;20.87;59.65;99793.84;5086396;28;20075;-71
2022/05/31 03:41:25;;;;;;;6.90;3.88;;;;;;;20.96;59.62;99805.84;5081822;28;20136;-71
2022/05/31 03:43:51;;;;;;;7.97;3.67;;;;;;;20.88;59.82;99806.84;5083675;28;20147;-71
2022/05/31 03:46:19;;;;;;;6.55;3.13;;;;;;;20.79;60.05;99794.88;5085906;28;20131;-72
2022/05/31 03:48:46;;;;;;;5.70;2.92;;;;;;;20.49;60.31;99766.97;5090450;28;20429;-70
2022/05/31 03:51:13;;;;;;;7.78;2.85;;;;;;;20.57;60.17;99780.16;5085628;28;20139;-71
2022/05/31 03:53:40;;;;;;;10.32;3.75;;;;;;;20.59;60.42;99786.28;5081338;28;20052;-70
2022/05/31 03:56:10;;;;;;;11.50;3.78;;;;;;;20.59;60.07;99777.78;5080158;28;20594;-69
2022/05/31 03:58:39;;;;;;;8.45;2.83;;;;;;;20.68;60.21;99785.28;5084520;28;20062;-69
2022/05/31 04:01:06;;;;;;;5.95;3.55;;;;;;;20.65;60.39;99791.66;5079867;28;20136;-69
2022/05/31 04:03:32;;;;;;;7.32;2.83;;;;;;;20.43;60.34;99765.59;5083213;28;20127;-70
2022/05/31 04:06:04;;;;;;;6.53;3.05;;;;;;;20.44;60.70;99781.41;5076053;28;20050;-70
2022/05/31 04:08:31;;;;;;;10.13;3.50;;;;;;;20.21;60.99;99760.56;5081230;28;20487;-71
2022/05/31 04:10:58;;;;;;;10.55;3.30;;;;;;;20.38;60.89;99788.56;5082508;28;20151;-72
2022/05/31 04:13:25;;;;;;;5.90;2.60;;;;;;;20.45;60.54;99777.41;5086786;28;20138;-71
2022/05/31 04:16:08;;;;;;;9.02;2.90;;;;;;;20.27;60.57;99759.09;5079364;28;20139;-70
2022/05/31 04:18:37;;;;;;;6.68;3.25;;;;;;;20.39;60.84;99780.88;5090886;28;20044;-71
2022/05/31 04:21:07;;;;;;;8.20;3.60;;;;;;;20.16;61.29;99769.31;5077592;28;20131;-71
2022/05/31 04:26:20;;;;;;;7.68;3.42;;;;;;;20.10;61.86;99788.59;5081550;28;20117;-72
2022/05/31 04:28:47;;;;;;;8.60;3.35;;;;;;;19.94;62.01;99784.94;5093755;28;20425;-71
2022/05/31 04:31:14;;;;;;;7.07;3.25;;;;;;;19.91;62.62;99794.97;5085048;28;20106;-71
2022/05/31 04:33:41;;;;;;;4.55;2.72;;;;;;;19.76;62.94;99784.41;5091398;28;20052;-71
2022/05/31 04:36:14;;;;;;;5.63;2.92;;;;;;;19.82;62.96;99780.97;5080686;28;20521;-71
2022/05/31 04:38:41;;;;;;;8.57;3.40;;;;;;;19.88;62.73;99787.19;5080524;28;20490;-71
2022/05/31 04:41:16;;;;;;;6.78;2.97;;;;;;;19.86;62.99;99783.88;5083602;28;20146;-71
2022/05/31 04:43:43;;;;;;;3.35;2.13;;;;;;;19.86;62.83;99786.72;5087186;28;20533;-71
2022/05/31 04:46:11;;;;;;;7.05;2.70;;;;;;;19.89;62.58;99788.84;5083774;28;20056;-72
2022/05/31 04:48:38;;;;;;;6.03;3.00;;;;;;;20.02;62.24;99796.09;5089369;28;20079;-72
2022/05/31 04:51:05;;;;;;;5.15;3.17;;;;;;;19.92;62.59;99785.28;5088698;28;20149;-72
2022/05/31 04:53:32;;;;;;;8.68;3.33;;;;;;;20.07;62.30;99795.03;5082676;28;20083;-72
2022/05/31 04:56:04;;;;;;;4.75;2.70;;;;;;;20.15;62.22;99796.03;5087597;28;20134;-71
2022/05/31 04:58:32;;;;;;;6.10;3.13;;;;;;;20.21;62.04;99791.75;5081721;28;20052;-72
2022/05/31 05:01:01;;;;;;;8.48;4.75;;;;;;;20.25;62.08;99784.97;5084480;28;20131;-73
2022/05/31 05:03:29;;;;;;;8.27;3.38;;;;;;;20.18;62.19;99784.78;5088456;28;20510;-73
2022/05/31 05:06:00;;;;;;;7.72;2.95;;;;;;;20.02;62.62;99752.75;5083532;28;20052;-71
2022/05/31 05:08:28;;;;;;;7.68;3.42;;;;;;;20.28;62.57;99784.25;5079740;28;20087;-70
2022/05/31 05:10:55;;;;;;;8.25;3.42;;;;;;;20.24;62.30;99793.81;5088161;28;20458;-70
2022/05/31 05:13:22;;;;;;;6.47;2.30;;;;;;;20.23;62.36;99800.69;5089346;28;20135;-72
2022/05/31 05:15:51;;;;;;;7.55;3.15;;;;;;;20.25;62.52;99792.66;5090013;28;20136;-72
2022/05/31 05:18:18;;;;;;;7.00;3.30;;;;;;;20.29;62.17;99785.06;5084684;28;20056;-72
2022/05/31 05:20:45;;;;;;;8.10;3.47;;;;;;;20.41;62.21;99795.50;5080902;28;20072;-69
2022/05/31 05:23:12;;;;;;;7.30;2.90;;;;;;;20.43;62.25;99807.31;5077933;28;20071;-71
2022/05/31 05:25:39;;;;;;;7.70;2.72;;;;;;;20.42;62.32;99802.84;5079438;28;20079;-71
2022/05/31 05:30:52;;;;;;;8.77;3.47;;;;;;;20.23;61.94;99783.69;5081381;28;20437;-72
2022/05/31 05:33:19;;;;;;;6.40;2.97;;;;;;;20.39;61.98;99795.88;5077845;28;20055;-71
2022/05/31 05:35:46;;;;;;;6.60;3.10;;;;;;;20.51;61.95;99812.00;5082506;28;20486;-71
2022/05/31 05:38:13;;;;;;;5.32;2.70;;;;;;;20.26;61.95;99785.78;5080532;28;20149;-71
2022/05/31 05:40:40;;;;;;;8.88;2.83;;;;;;;20.41;61.99;99804.84;5076692;28;20894;-72
2022/05/31 05:43:09;;;;;;;3.92;2.40;;;;;;;20.41;61.80;99787.84;5083573;28;20125;-72
2022/05/31 05:45:36;;;;;;;8.50;4.30;;;;;;;20.41;62.02;99799.19;5080189;28;20090;-71
2022/05/31 05:48:07;;;;;;;7.35;2.85;;;;;;;20.37;62.26;99798.22;5072698;28;20503;-71
2022/05/31 05:50:35;;;;;;;8.68;3.58;;;;;;;20.52;62.03;99800.28;5073597;28;20591;-73
2022/05/31 05:53:04;;;;;;;5.53;2.47;;;;;;;20.64;61.62;99799.38;5077764;28;20127;-71
2022/05/31 05:55:35;;;;;;;4.15;2.67;;;;;;;20.58;61.94;99804.50;5080242;28;20125;-77
2022/05/31 05:58:03;;;;;;;5.68;2.65;;;;;;;20.45;61.74;99800.09;5075138;28;20140;-72
2022/05/31 06:00:31;;;;;;;4.13;2.65;;;;;;;20.47;61.77;99813.88;5074798;28;20045;-73
2022/05/31 06:03:56;;;;;;;6.22;2.53;;;;;;;20.30;62.16;99815.06;5081847;28;20130;-72
2022/05/31 06:06:25;;;;;;;8.55;3.15;;;;;;;20.27;62.10;99810.13;5029570;28;20147;-72
2022/05/31 06:08:52;;;;;;;7.40;2.88;;;;;;;20.42;61.88;99809.31;5078460;28;20079;-72
2022/05/31 06:11:24;;;;;;;6.68;3.15;;;;;;;20.28;62.16;99806.94;5082681;28;20056;-73
2022/05/31 06:14:00;;;;;;;6.32;3.25;;;;;;;20.44;61.85;99812.59;5087817;28;20139;-71
2022/05/31 06:16:33;;;;;;;5.82;3.03;;;;;;;20.34;62.29;99818.81;5093087;28;20118;-72
2022/05/31 06:19:18;;;;;;;11.52;2.88;;;;;;;20.22;62.21;99818.91;5089829;28;20078;-72
2022/05/31 06:21:48;;;;;;;7.43;3.65;;;;;;;20.35;62.01;99817.66;5077415;28;20483;-74
2022/05/31 06:24:16;;;;;;;9.00;3.78;;;;;;;20.22;62.19;99822.56;5085354;28;20094;-73
2022/05/31 06:26:43;;;;;;;9.48;3.58;;;;;;;20.33;61.96;99828.50;5084622;28;20050;-66
2022/05/31 06:29:11;;;;;;;7.35;4.32;;;;;;;20.31;61.90;99833.75;5083173;28;20123;-66
2022/05/31 06:31:38;;;;;;;6.70;4.03;;;;;;;20.19;62.32;99820.44;5081482;28;20052;-67
2022/05/31 06:34:05;;;;;;;11.70;3.80;;;;;;;20.20;62.29;99838.28;5086679;28;20055;-66
2022/05/31 06:36:32;;;;;;;5.60;2.30;;;;;;;20.09;62.60;99835.16;5088880;28;20080;-67
2022/05/31 06:38:59;;;;;;;6.80;3.17;;;;;;;20.11;62.38;99847.78;5082979;28;20140;-66
2022/05/31 06:41:26;;;;;;;6.72;3.53;;;;;;;20.15;61.92;99830.88;5077347;28;20071;-68
2022/05/31 06:43:53;;;;;;;7.75;3.20;;;;;;;20.23;61.86;99843.22;5083916;28;20135;-68
2022/05/31 06:46:20;;;;;;;6.03;3.83;;;;;;;20.31;61.70;99853.59;5083874;28;20525;-67
2022/05/31 06:48:47;;;;;;;9.15;2.75;;;;;;;20.18;61.70;99863.34;5079035;28;20169;-67
2022/05/31 06:56:48;;;;;;;4.72;2.78;;;;;;;19.91;62.20;99842.34;5079093;28;20139;-67
2022/05/31 06:56:57;;;;;;;5.28;2.80;;;;;;;19.86;62.29;99841.41;5072631;28;20143;-68
2022/05/31 06:59:24;;;;;;;6.38;3.25;;;;;;;19.91;62.39;99823.31;5085459;28;20067;-67
2022/05/31 07:01:53;;;;;;;5.75;2.55;;;;;;;20.01;62.03;99848.31;5079789;28;20127;-67
2022/05/31 07:04:20;;;;;;;5.07;2.65;;;;;;;19.97;62.37;99830.38;5081421;28;20052;-67
2022/05/31 07:06:46;;;;;;;8.45;3.58;;;;;;;20.17;62.25;99850.34;5075610;28;20083;-67
2022/05/31 07:09:13;;;;;;;8.13;3.67;;;;;;;20.35;61.86;99857.34;5091570;28;20086;-67
2022/05/31 07:11:40;;;;;;;8.77;4.07;;;;;;;20.53;61.84;99870.00;5091306;28;20130;-68
2022/05/31 07:14:07;;;;;;;5.30;3.63;;;;;;;20.67;61.41;99871.56;5086397;28;20139;-67
2022/05/31 07:16:34;;;;;;;8.25;3.53;;;;;;;20.85;61.23;99878.53;5084852;28;20075;-67
2022/05/31 07:19:01;;;;;;;8.18;3.97;;;;;;;20.58;61.16;99863.22;5092187;28;20051;-66
2022/05/31 07:21:27;;;;;;;15.65;4.32;;;;;;;20.38;61.54;99867.13;5076538;28;20076;-67
2022/05/31 07:23:54;;;;;;;14.88;4.28;;;;;;;20.34;61.73;99875.53;5082756;28;20135;-67
2022/05/31 07:26:21;;;;;;;11.27;3.58;;;;;;;20.18;62.10;99860.50;5091893;28;20134;-67
2022/05/31 07:29:04;;;;;;;3.95;2.22;;;;;;;20.16;62.50;99882.72;5087731;28;20466;-67
2022/05/31 07:31:31;;;;;;;7.28;3.17;;;;;;;19.92;62.69;99843.97;5092639;28;20082;-66
2022/05/31 07:33:58;;;;;;;7.70;2.70;;;;;;;20.02;63.00;99877.47;5087719;28;20123;-67
2022/05/31 07:36:25;;;;;;;4.28;2.22;;;;;;;19.97;63.02;99881.38;5088466;28;20135;-67
2022/05/31 07:38:52;;;;;;;5.70;3.08;;;;;;;19.80;63.77;99876.03;5084812;28;20048;-67
2022/05/31 07:41:19;;;;;;;7.03;2.08;;;;;;;19.80;63.82;99879.69;5082822;28;20086;-67
2022/05/31 07:43:46;;;;;;;6.45;2.78;;;;;;;19.93;63.64;99880.47;5085354;28;20540;-67
2022/05/31 07:46:13;;;;;;;6.00;3.20;;;;;;;19.95;63.75;99878.06;5077346;28;20044;-68
2022/05/31 07:48:40;;;;;;;3.80;2.63;;;;;;;19.91;63.56;99860.16;5079355;28;20148;-67
2022/05/31 07:51:08;;;;;;;6.03;2.60;;;;;;;20.05;63.56;99874.72;5084070;28;20123;-67
2022/05/31 07:53:35;;;;;;;5.03;3.30;;;;;;;20.05;63.61;99882.41;5071193;28;20503;-67
2022/05/31 07:56:07;;;;;;;11.05;3.97;;;;;;;20.02;63.41;99866.94;5083914;28;20063;-67
2022/05/31 07:58:39;;;;;;;7.68;4.05;;;;;;;20.16;63.36;99871.38;5074898;28;20055;-67
2022/05/31 08:01:13;;;;;;;8.32;3.85;;;;;;;20.28;63.23;99874.16;5077255;28;20118;-67
2022/05/31 08:03:40;;;;;;;5.80;2.55;;;;;;;20.32;63.09;99887.25;5076847;28;20070;-68
2022/05/31 08:06:16;;;;;;;9.20;4.25;;;;;;;20.34;63.25;99879.22;5082746;28;20087;-67
2022/05/31 08:08:43;;;;;;;6.60;1.80;;;;;;;20.28;62.97;99882.66;5089970;28;20113;-67
2022/05/31 08:11:16;;;;;;;3.97;2.33;;;;;;;20.42;62.47;99879.41;5082120;28;20124;-67
2022/05/31 08:13:43;;;;;;;2.42;1.38;;;;;;;20.33;62.83;99879.56;5078924;28;20075;-67
2022/05/31 08:16:12;;;;;;;11.90;3.03;;;;;;;20.42;62.63;99894.41;5077829;28;20072;-67
2022/05/31 08:18:42;;;;;;;4.63;2.20;;;;;;;20.49;62.56;99891.75;5078493;28;20048;-67
2022/05/31 08:21:12;;;;;;;3.83;1.92;;;;;;;20.50;62.48;99890.59;5083714;28;20783;-67
2022/05/31 08:23:39;;;;;;;4.03;2.47;;;;;;;20.51;62.34;99891.41;5080680;28;20106;-67
2022/05/31 08:26:07;;;;;;;2.83;1.88;;;;;;;20.23;62.61;99848.91;5082269;28;20075;-68
2022/05/31 08:28:35;;;;;;;4.30;2.38;;;;;;;20.21;62.63;99857.78;5084236;28;20080;-67
2022/05/31 08:31:05;;;;;;;5.55;2.22;;;;;;;20.35;62.89;99883.69;5088953;28;20126;-68
2022/05/31 08:33:33;;;;;;;4.32;2.55;;;;;;;20.45;62.82;99884.34;5086480;28;20051;-67
2022/05/31 08:36:00;;;;;;;5.95;3.65;;;;;;;20.54;62.57;99877.31;5085131;28;20140;-68
2022/05/31 08:38:30;;;;;;;8.50;3.95;;;;;;;20.86;62.24;99877.34;5082282;28;20045;-67
2022/05/31 08:41:24;;;;;;;5.00;2.85;;;;;;;20.91;61.98;99877.06;5088727;28;20521;-68
2022/05/31 08:44:20;;;;;;;8.30;3.20;;;;;;;21.24;61.59;99875.84;5087178;28;20499;-67
2022/05/31 08:46:50;;;;;;;2.22;1.65;;;;;;;21.37;61.37;99883.09;5088443;28;20083;-67
2022/05/31 08:49:21;;;;;;;5.97;2.40;;;;;;;21.05;60.96;99846.19;5083286;28;20094;-66
2022/05/31 08:52:15;;;;;;;4.43;2.85;;;;;;;21.45;60.72;99870.69;5088671;28;20080;-68
2022/05/31 08:57:40;;;;;;;6.47;2.45;;;;;;;21.67;60.66;99874.00;5083601;28;20078;-67
2022/05/31 09:00:23;;;;;;;3.83;2.00;;;;;;;21.73;60.36;99861.16;5089117;28;20062;-67
2022/05/31 09:03:02;;;;;;;6.57;2.78;;;;;;;21.82;59.88;99878.84;5090001;28;20068;-67
2022/05/31 09:05:34;;;;;;;6.07;1.90;;;;;;;21.89;59.61;99867.59;5090655;28;20077;-68
2022/05/31 09:08:28;;;;;;;9.00;3.03;;;;;;;21.89;59.74;99866.78;5080598;28;20143;-67
2022/05/31 09:11:25;;;;;;;5.68;1.92;;;;;;;22.09;59.34;99881.84;5084052;28;20144;-67
2022/05/31 09:14:01;;;;;;;7.22;2.92;;;;;;;22.09;58.63;99876.16;5083366;28;20131;-67
2022/05/31 09:17:01;;;;;;;4.90;1.77;;;;;;;22.17;58.86;99866.59;5086601;28;20308;-67
2022/05/31 09:19:54;;;;;;;4.38;1.95;;;;;;;22.09;58.51;99847.72;5056820;28;20052;-68
2022/05/31 09:22:24;;;;;;;3.15;1.60;;;;;;;22.38;58.21;99864.16;5078344;28;20067;-68
2022/05/31 09:24:51;;;;;;;5.00;1.77;;;;;;;22.08;58.02;99811.94;5083075;28;20044;-68
2022/05/31 09:27:42;;;;;;;3.55;1.75;;;;;;;22.21;58.04;99844.72;5082542;28;20063;-68
2022/05/31 09:30:18;;;;;;;8.80;1.30;;;;;;;22.00;58.52;99834.53;5081980;28;20076;-68
2022/05/31 09:32:54;;;;;;;3.10;1.35;;;;;;;22.13;58.29;99842.91;5080918;28;20051;-68
2022/05/31 09:35:52;;;;;;;3.70;1.40;;;;;;;22.22;57.83;99855.72;5075851;28;20130;-68
2022/05/31 09:38:37;;;;;;;9.20;1.60;;;;;;;22.35;58.12;99858.38;5081386;28;20082;-67
2022/05/31 09:41:15;;;;;;;3.22;1.67;;;;;;;22.41;57.88;99852.00;5088056;28;20123;-68
2022/05/31 09:43:51;;;;;;;3.90;2.10;;;;;;;22.76;57.31;99868.09;5085445;28;20638;-67
2022/05/31 09:46:37;;;;;;;2.67;1.10;;;;;;;22.90;56.96;99853.28;5081265;28;20076;-67
2022/05/31 09:49:31;;;;;;;2.92;1.70;;;;;;;22.99;56.96;99850.22;5080730;28;20153;-67
2022/05/31 09:51:59;;;;;;;3.17;1.70;;;;;;;23.08;56.12;99862.16;5089375;28;20135;-67
2022/05/31 09:57:23;;;;;;;5.90;1.83;;;;;;;23.07;55.66;99857.66;5089945;28;20080;-68
2022/05/31 09:59:51;;;;;;;3.78;1.60;;;;;;;22.92;55.57;99834.66;5080345;28;20475;-67
2022/05/31 10:02:24;;;;;;;5.13;1.75;;;;;;;23.11;55.42;99864.22;5085584;28;20072;-68
2022/05/31 10:05:21;;;;;;;9.25;1.98;;;;;;;23.10;55.39;99862.59;5086741;28;20044;-67
2022/05/31 10:07:48;;;;;;;2.25;1.50;;;;;;;23.18;55.56;99859.50;5082548;28;20059;-68
2022/05/31 10:10:35;;;;;;;3.83;1.67;;;;;;;23.40;54.98;99872.03;5079962;28;20304;-68
2022/05/31 10:13:09;;;;;;;3.10;1.75;;;;;;;23.36;55.15;99859.75;5078978;28;20567;-67
2022/05/31 10:15:45;;;;;;;9.15;1.48;;;;;;;23.33;54.68;99871.91;5088169;28;20115;-68
2022/05/31 10:18:32;;;;;;;3.72;1.50;;;;;;;23.33;55.25;99860.53;5076696;28;20083;-68
2022/05/31 10:21:02;;;;;;;2.30;1.30;;;;;;;23.52;55.36;99873.00;5080537;28;20189;-67
2022/05/31 10:23:34;;;;;;;;;;;;;;;23.68;55.21;99859.41;5084812;28;20507;-68
2022/05/31 10:26:02;;;;;;;8.40;1.80;;;;;;;23.87;54.22;99867.81;5085027;28;19967;-67
2022/05/31 10:28:49;;;;;;;3.67;1.60;;;;;;;23.91;54.00;99872.75;5085261;28;20055;-67
2022/05/31 10:31:20;;;;;;;6.35;2.20;;;;;;;23.81;53.54;99840.88;5084237;28;20072;-67
2022/05/31 10:33:58;;;;;;;3.88;1.50;;;;;;;23.99;53.52;99860.22;5085147;28;20056;-66
2022/05/31 10:36:28;;;;;;;2.75;1.52;;;;;;;24.12;53.36;99862.44;5085309;28;20050;-67
2022/05/31 10:39:06;;;;;;;4.10;1.98;;;;;;;24.41;52.97;99867.66;5071332;28;20084;-67
2022/05/31 10:41:35;;;;;;;8.07;2.58;;;;;;;24.66;52.64;99856.53;5081134;28;20093;-68
2022/05/31 10:44:31;;;;;;;2.78;1.48;;;;;;;24.98;51.98;99865.38;5079797;28;20062;-66
2022/05/31 10:47:09;;;;;;;6.88;1.27;;;;;;;24.96;51.53;99870.66;5080110;28;20079;-67
2022/05/31 10:49:38;;;;;;;4.50;2.00;;;;;;;24.86;51.70;99865.69;5082349;28;20088;-67
2022/05/31 10:52:35;;;;;;;3.28;1.50;;;;;;;24.85;51.16;99866.88;5077761;28;20076;-68
2022/05/31 10:55:23;;;;;;;4.68;2.33;;;;;;;25.08;51.08;99866.69;5079449;28;20120;-68
2022/05/31 10:57:59;;;;;;;4.65;2.33;;;;;;;25.36;50.66;99871.81;5078120;28;20119;-68
2022/05/31 11:00:31;;;;;;;10.13;3.72;;;;;;;25.56;50.80;99863.78;5082211;28;20095;-66
2022/05/31 11:03:30;;;;;;;4.18;1.88;;;;;;;25.76;50.16;99845.91;5073644;28;20980;-66
2022/05/31 11:06:07;;;;;;;5.57;1.73;;;;;;;25.99;50.19;99870.59;5079205;28;20127;-66
2022/05/31 11:11:55;;;;;;;2.42;1.70;;;;;;;25.93;50.05;99855.03;5089652;28;20076;-67
2022/05/31 11:14:57;;;;;;;4.97;1.63;;;;;;;25.97;49.97;99873.81;5078594;28;20051;-68
2022/05/31 11:17:42;;;;;;;5.40;2.10;;;;;;;26.00;49.71;99872.22;5065513;28;20087;-67
2022/05/31 11:20:27;;;;;;;8.10;2.47;;;;;;;25.64;50.60;99860.56;5075362;28;20060;-68
2022/05/31 11:23:00;;;;;;;5.93;1.95;;;;;;;25.43;50.85;99860.41;5079929;28;20047;-68
2022/05/31 11:26:05;;;;;;;7.13;2.53;;;;;;;25.18;51.76;99869.66;5072867;28;20552;-68
2022/05/31 11:29:14;;;;;;;5.85;2.42;;;;;;;25.04;51.46;99880.94;5066460;28;20048;-67
2022/05/31 11:32:17;;;;;;;4.33;1.70;;;;;;;24.42;52.59;99875.03;5075812;28;20087;-67
2022/05/31 11:34:54;;;;;;;6.25;2.08;;;;;;;24.38;52.99;99912.06;5071339;28;20281;-68
2022/05/31 11:37:48;;;;;;;7.03;2.95;;;;;;;23.96;53.59;99918.03;5074012;28;20144;-67
2022/05/31 11:40:54;;;;;;;6.93;2.38;;;;;;;23.57;54.75;99919.09;5072295;28;20495;-68
2022/05/31 11:43:21;;;;;;;4.40;2.00;;;;;;;23.51;55.20;99911.25;5070187;28;20070;-68
2022/05/31 11:46:03;;;;;;;4.38;2.70;;;;;;;23.19;55.50;99834.66;5087217;28;20076;-68
2022/05/31 11:48:36;;;;;;;4.53;2.25;;;;;;;23.62;55.73;99901.69;5072140;28;20087;-68
2022/05/31 11:51:18;;;;;;;6.57;2.28;;;;;;;23.55;55.82;99893.00;5086058;28;20123;-68
2022/05/31 11:54:18;;;;;;;5.70;2.15;;;;;;;23.51;56.38;99906.38;5077224;28;20048;-69
2022/05/31 11:57:04;;;;;;;5.72;1.98;;;;;;;23.32;56.69;99878.00;5038850;28;20368;-68
2022/05/31 11:59:41;;;;;;;3.15;1.70;;;;;;;23.36;57.06;99879.69;5089397;28;20109;-67
2022/05/31 12:02:16;;;;;;;4.60;1.77;;;;;;;23.30;57.13;99884.06;5090143;28;20076;-68
2022/05/31 12:04:53;;;;;;;3.05;1.60;;;;;;;23.26;57.31;99880.34;5083242;28;20414;-68
2022/05/31 12:07:41;;;;;;;5.38;2.17;;;;;;;23.18;57.65;99913.59;5071357;28;20473;-68
2022/05/31 12:10:16;;;;;;;12.30;9.88;;;;;;;22.92;57.42;99896.44;5071774;28;20128;-68
2022/05/31 12:12:45;;;;;;;6.88;4.78;;;;;;;22.67;58.33;99907.38;5072610;28;20132;-67
2022/05/31 12:15:27;;;;;;;7.43;3.65;;;;;;;22.52;58.69;99908.28;5072303;28;20110;-67
2022/05/31 12:17:58;;;;;;;4.38;2.22;;;;;;;22.48;58.69;99917.59;5085304;28;20068;-68
2022/05/31 12:20:40;;;;;;;6.00;2.50;;;;;;;22.24;58.98;99907.34;5072321;28;20099;-67